createdAt,value
2018-11-20T00:01:19.711Z,100395.36
2018-11-20T00:04:21.701Z,100388.50
2018-11-20T00:07:20.945Z,100391.30
2018-11-20T00:10:09.668Z,100385.22
2018-11-20T00:13:14.716Z,100376.69
2018-11-20T00:16:07.368Z,100370.31
2018-11-20T00:18:57.244Z,100373.44
2018-11-20T00:22:02.403Z,100376.03
2018-11-20T00:25:07.269Z,100346.86
2018-11-20T00:27:52.365Z,100350.52
2018-11-20T00:30:51.319Z,100345.56
2018-11-20T00:33:50.044Z,100340.31
2018-11-20T00:36:52.114Z,100336.70
2018-11-20T00:39:39.669Z,100336.22
2018-11-20T00:42:26.521Z,100323.41
2018-11-20T00:45:28.249Z,100324.56
2018-11-20T00:48:18.193Z,100329.81
2018-11-20T00:51:07.105Z,100314.55
2018-11-20T00:53:49.819Z,100316.39
2018-11-20T00:56:54.659Z,100319.64
2018-11-20T00:59:47.639Z,100319.64
2018-11-20T01:02:40.693Z,100302.08
2018-11-20T01:05:39.606Z,100311.94
2018-11-20T01:08:26.169Z,100290.73
2018-11-20T01:11:24.043Z,100334.25
2018-11-20T01:14:06.764Z,100297.00
2018-11-20T01:16:59.923Z,100293.22
2018-11-20T01:19:58.805Z,100291.60
2018-11-20T01:23:03.915Z,100292.42
2018-11-20T01:25:52.216Z,100282.73
2018-11-20T01:28:41.264Z,100271.73
2018-11-20T01:31:32.139Z,100275.01
2018-11-20T01:34:22.135Z,100262.35
2018-11-20T01:37:14.965Z,100254.50
2018-11-20T01:40:14.168Z,100239.05
2018-11-20T01:43:01.864Z,100250.06
2018-11-20T01:45:57.518Z,100252.04
2018-11-20T01:48:56.643Z,100253.84
2018-11-20T01:51:49.454Z,100251.55
2018-11-20T01:54:52.245Z,100245.48
2018-11-20T01:57:47.851Z,100238.08
2018-11-20T02:00:37.714Z,100242.02
2018-11-20T02:03:26.125Z,100238.74
2018-11-20T02:06:25.929Z,100221.84
2018-11-20T02:09:22.780Z,100205.11
2018-11-20T02:12:25.015Z,100204.46
2018-11-20T02:15:16.095Z,100222.33
2018-11-20T02:18:19.010Z,100204.62
2018-11-20T02:21:17.194Z,100211.01
2018-11-20T02:24:03.981Z,100195.44
2018-11-20T02:27:06.003Z,100194.45
2018-11-20T02:30:07.969Z,100195.27
2018-11-20T02:33:04.348Z,100188.53
2018-11-20T02:35:52.715Z,100178.54
2018-11-20T02:38:48.839Z,100179.36
2018-11-20T02:41:44.805Z,100178.73
2018-11-20T02:44:40.679Z,100167.72
2018-11-20T02:47:23.968Z,100152.28
2018-11-20T02:50:20.899Z,100145.56
2018-11-20T02:53:11.233Z,100155.90
2018-11-20T02:55:53.732Z,100141.27
2018-11-20T02:58:40.184Z,100150.14
2018-11-20T03:01:32.719Z,100142.27
2018-11-20T03:04:11.955Z,100133.39
2018-11-20T03:07:07.703Z,100123.25
2018-11-20T03:10:03.706Z,100133.25
2018-11-20T03:12:56.324Z,100134.89
2018-11-20T03:15:49.113Z,100125.03
2018-11-20T03:18:43.428Z,100130.79
2018-11-20T03:21:24.031Z,100135.22
2018-11-20T03:24:13.869Z,100123.59
2018-11-20T03:27:06.770Z,100122.28
2018-11-20T03:31:12.277Z,100108.97
2018-11-20T03:34:14.308Z,100115.86
2018-11-20T03:37:02.552Z,100110.59
2018-11-20T03:39:51.378Z,100114.54
2018-11-20T03:42:39.929Z,100112.73
2018-11-20T03:45:26.406Z,100108.48
2018-11-20T03:48:31.167Z,100094.20
2018-11-20T03:51:20.312Z,100103.39
2018-11-20T03:54:05.638Z,100114.86
2018-11-20T03:56:54.262Z,100097.80
2018-11-20T03:59:42.920Z,100087.61
2018-11-20T04:02:41.709Z,100097.97
2018-11-20T04:05:22.137Z,100094.34
2018-11-20T04:08:10.883Z,100090.73
2018-11-20T04:10:59.408Z,100095.52
2018-11-20T04:13:49.289Z,100096.16
2018-11-20T04:16:31.240Z,100098.30
2018-11-20T04:19:21.884Z,100087.47
2018-11-20T04:22:10.481Z,100099.11
2018-11-20T04:24:59.239Z,100090.91
2018-11-20T04:27:52.213Z,100091.23
2018-11-20T04:31:34.374Z,100085.34
2018-11-20T04:34:25.442Z,100086.97
2018-11-20T04:37:27.722Z,100071.39
2018-11-20T04:40:17.999Z,100078.95
2018-11-20T04:43:11.897Z,100080.58
2018-11-20T04:46:06.613Z,100070.89
2018-11-20T04:48:58.374Z,100076.46
2018-11-20T04:51:51.387Z,100071.55
2018-11-20T04:54:49.989Z,100067.93
2018-11-20T04:57:58.094Z,100063.17
2018-11-20T05:00:54.259Z,100053.98
2018-11-20T05:03:50.613Z,100050.55
2018-11-20T05:06:39.010Z,100055.80
2018-11-20T05:09:31.201Z,100039.39
2018-11-20T05:12:19.688Z,100054.16
2018-11-20T05:15:12.179Z,100044.80
2018-11-20T05:18:14.503Z,100046.28
2018-11-20T05:21:19.657Z,100043.33
2018-11-20T05:24:30.448Z,100041.20
2018-11-20T05:27:15.212Z,100034.28
2018-11-20T05:29:59.269Z,100035.77
2018-11-20T05:32:49.247Z,100044.14
2018-11-20T05:35:44.994Z,100050.86
2018-11-20T05:38:27.873Z,100042.67
2018-11-20T05:41:23.558Z,100044.45
2018-11-20T05:44:12.218Z,100037.08
2018-11-20T05:47:11.277Z,100049.21
2018-11-20T05:50:10.413Z,100043.00
2018-11-20T05:53:00.373Z,100064.64
2018-11-20T05:55:48.393Z,100066.95
2018-11-20T05:58:56.536Z,100054.81
2018-11-20T06:01:49.298Z,100064.47
2018-11-20T06:04:51.515Z,100053.50
2018-11-20T06:07:33.542Z,100055.62
2018-11-20T06:10:38.319Z,100046.93
2018-11-20T06:13:34.052Z,100053.00
2018-11-20T06:16:32.972Z,100048.25
2018-11-20T06:19:22.130Z,100045.94
2018-11-20T06:22:27.348Z,100058.23
2018-11-20T06:25:32.294Z,100054.63
2018-11-20T06:28:20.696Z,100057.73
2018-11-20T06:31:02.717Z,100038.88
2018-11-20T06:34:04.606Z,100036.73
2018-11-20T06:36:46.190Z,100053.33
2018-11-20T06:39:54.694Z,100030.20
2018-11-20T06:42:44.666Z,100030.51
2018-11-20T06:45:41.852Z,100053.64
2018-11-20T06:48:34.870Z,100038.88
2018-11-20T06:51:23.433Z,100033.81
2018-11-20T06:54:31.896Z,100032.33
2018-11-20T06:57:21.898Z,100036.08
2018-11-20T07:00:06.007Z,100038.55
2018-11-20T07:03:02.054Z,100038.88
2018-11-20T07:05:50.711Z,100024.77
2018-11-20T07:08:40.711Z,100029.86
2018-11-20T07:11:39.891Z,100022.15
2018-11-20T07:14:40.095Z,100017.39
2018-11-20T07:17:48.169Z,100026.42
2018-11-20T07:20:36.671Z,100018.70
2018-11-20T07:23:25.547Z,100024.92
2018-11-20T07:26:33.844Z,100033.13
2018-11-20T07:29:22.604Z,100016.73
2018-11-20T07:32:18.506Z,100024.63
2018-11-20T07:35:08.432Z,100018.69
2018-11-20T07:37:57.028Z,100008.70
2018-11-20T07:40:51.489Z,100025.94
2018-11-20T07:43:42.959Z,100020.99
2018-11-20T07:46:38.746Z,99996.41
2018-11-20T07:49:37.783Z,99998.03
2018-11-20T07:52:34.130Z,100001.65
2018-11-20T07:55:23.013Z,99991.80
2018-11-20T07:58:19.041Z,99993.10
2018-11-20T08:01:11.729Z,99984.08
2018-11-20T08:04:04.567Z,99982.30
2018-11-20T08:06:53.122Z,99958.36
2018-11-20T08:09:43.580Z,99962.80
2018-11-20T08:12:33.450Z,99976.89
2018-11-20T08:15:23.521Z,99986.05
2018-11-20T08:18:16.324Z,99966.70
2018-11-20T08:21:04.895Z,99974.42
2018-11-20T08:23:54.367Z,99962.63
2018-11-20T08:26:43.237Z,99955.89
2018-11-20T08:29:31.902Z,99960.14
2018-11-20T08:32:20.643Z,99959.33
2018-11-20T08:35:02.910Z,99959.67
2018-11-20T08:37:48.995Z,99964.75
2018-11-20T08:40:51.197Z,99962.94
2018-11-20T08:43:46.517Z,99960.64
2018-11-20T08:46:54.493Z,99950.16
2018-11-20T08:50:17.728Z,99956.37
2018-11-20T08:53:15.720Z,99964.73
2018-11-20T08:56:02.871Z,99927.02
2018-11-20T08:58:50.370Z,99956.22
2018-11-20T09:01:39.092Z,99934.92
2018-11-20T09:04:27.682Z,99957.05
2018-11-20T09:07:06.857Z,99924.73
2018-11-20T09:09:53.414Z,99926.39
2018-11-20T09:13:00.642Z,99928.51
2018-11-20T09:15:48.426Z,99938.02
2018-11-20T09:18:36.104Z,99944.57
2018-11-20T09:21:34.537Z,99947.02
2018-11-20T09:24:29.225Z,99968.19
2018-11-20T09:27:19.788Z,99953.27
2018-11-20T09:30:27.546Z,99966.06
2018-11-20T09:33:15.197Z,99977.70
2018-11-20T09:35:57.387Z,99968.19
2018-11-20T09:39:04.493Z,99985.73
2018-11-20T09:41:52.196Z,100004.27
2018-11-20T09:44:58.123Z,99993.10
2018-11-20T09:48:02.432Z,99985.09
2018-11-20T09:51:03.440Z,99991.48
2018-11-20T09:54:01.769Z,99971.16
2018-11-20T09:56:46.754Z,99972.45
2018-11-20T09:59:39.225Z,99967.86
2018-11-20T10:02:22.594Z,99970.80
2018-11-20T10:05:17.373Z,99962.94
2018-11-20T10:08:04.935Z,99953.92
2018-11-20T10:11:00.605Z,99956.37
2018-11-20T10:13:52.345Z,99949.81
2018-11-20T10:16:41.397Z,99964.93
2018-11-20T10:19:42.450Z,99961.95
2018-11-20T10:22:37.112Z,99954.42
2018-11-20T10:25:37.464Z,99941.13
2018-11-20T10:28:44.221Z,99942.10
2018-11-20T10:31:31.721Z,99936.04
2018-11-20T10:34:38.933Z,99920.97
2018-11-20T10:37:33.447Z,99923.27
2018-11-20T10:40:22.891Z,99898.48
2018-11-20T10:43:30.155Z,99901.11
2018-11-20T10:46:17.980Z,99905.69
2018-11-20T10:49:18.619Z,99911.30
2018-11-20T10:52:09.122Z,99903.73
2018-11-20T10:54:47.020Z,99901.58
2018-11-20T10:57:34.791Z,99899.12
2018-11-20T11:00:29.326Z,99897.32
2018-11-20T11:03:16.995Z,99904.70
2018-11-20T11:06:04.599Z,99906.19
2018-11-20T11:09:05.076Z,99909.13
2018-11-20T11:11:55.833Z,99904.38
2018-11-20T11:14:55.022Z,99918.49
2018-11-20T11:17:58.734Z,99908.81
2018-11-20T11:20:46.207Z,99902.25
2018-11-20T11:23:33.811Z,99905.55
2018-11-20T11:26:40.515Z,99877.33
2018-11-20T11:29:27.808Z,99867.49
2018-11-20T11:32:35.277Z,99878.77
2018-11-20T11:35:30.282Z,99867.31
2018-11-20T11:38:27.937Z,99871.72
2018-11-20T11:41:19.876Z,99867.14
2018-11-20T11:44:17.462Z,99866.00
2018-11-20T11:47:24.460Z,99860.89
2018-11-20T11:50:12.006Z,99853.69
2018-11-20T11:53:00.846Z,99866.15
2018-11-20T11:55:52.588Z,99862.07
2018-11-20T11:58:50.477Z,99868.95
2018-11-20T12:04:54.902Z,99865.15
2018-11-20T12:07:47.759Z,99871.89
2018-11-20T12:10:48.741Z,99865.83
2018-11-20T12:13:46.005Z,99862.52
2018-11-20T12:16:34.116Z,99873.06
2018-11-20T12:19:21.380Z,99855.64
2018-11-20T12:22:14.078Z,99840.56
2018-11-20T12:25:17.777Z,99838.09
2018-11-20T12:28:16.668Z,99827.41
2018-11-20T12:31:06.272Z,99829.70
2018-11-20T12:34:00.012Z,99824.45
2018-11-20T12:36:49.238Z,99815.58
2018-11-20T12:39:49.182Z,99827.07
2018-11-20T12:42:38.652Z,99822.77
2018-11-20T12:45:24.404Z,99825.89
2018-11-20T12:48:22.517Z,99842.50
2018-11-20T12:51:19.934Z,99829.68
2018-11-20T12:54:03.552Z,99829.50
2018-11-20T12:56:50.806Z,99822.31
2018-11-20T12:59:38.322Z,99827.19
2018-11-20T13:02:40.047Z,99830.49
2018-11-20T13:05:37.325Z,99826.86
2018-11-20T13:08:38.052Z,99836.24
2018-11-20T13:11:41.824Z,99832.27
2018-11-20T13:14:39.778Z,99817.82
2018-11-20T13:17:22.863Z,99837.89
2018-11-20T13:20:10.647Z,99832.82
2018-11-20T13:22:58.976Z,99832.84
2018-11-20T13:25:51.039Z,99838.25
2018-11-20T13:28:46.087Z,99838.76
2018-11-20T13:31:46.738Z,99825.02
2018-11-20T13:34:34.068Z,99831.26
2018-11-20T13:37:28.689Z,99833.39
2018-11-20T13:40:29.419Z,99826.52
2018-11-20T13:43:27.031Z,99824.53
2018-11-20T13:46:28.125Z,99818.16
2018-11-20T13:49:22.910Z,99817.02
2018-11-20T13:51:59.981Z,99818.16
2018-11-20T13:54:53.685Z,99808.16
2018-11-20T13:58:02.365Z,99804.76
2018-11-20T14:01:00.728Z,99798.38
2018-11-20T14:03:49.423Z,99804.80
2018-11-20T14:06:47.459Z,99806.09
2018-11-20T14:09:35.201Z,99792.67
2018-11-20T14:12:42.376Z,99794.77
2018-11-20T14:15:37.651Z,99777.71
2018-11-20T14:18:25.102Z,99788.17
2018-11-20T14:21:12.651Z,99773.08
2018-11-20T14:24:10.445Z,99770.31
2018-11-20T14:26:59.712Z,99774.06
2018-11-20T14:29:47.281Z,99771.10
2018-11-20T14:32:34.742Z,99772.42
2018-11-20T14:35:26.255Z,99770.13
2018-11-20T14:38:27.315Z,99765.86
2018-11-20T14:41:16.116Z,99761.45
2018-11-20T14:44:10.580Z,99761.27
2018-11-20T14:46:57.433Z,99766.03
2018-11-20T14:50:01.435Z,99761.45
2018-11-20T14:52:50.340Z,99758.50
2018-11-20T14:55:42.518Z,99752.59
2018-11-20T14:58:19.197Z,99754.89
2018-11-20T15:01:17.206Z,99751.27
2018-11-20T15:04:06.347Z,99744.24
2018-11-20T15:06:53.511Z,99750.11
2018-11-20T15:09:48.269Z,99747.67
2018-11-20T15:12:35.916Z,99748.61
2018-11-20T15:15:29.880Z,99746.81
2018-11-20T15:18:30.620Z,99742.22
2018-11-20T15:21:16.730Z,99742.73
2018-11-20T15:23:55.994Z,99739.16
2018-11-20T15:26:38.416Z,99736.33
2018-11-20T15:29:29.903Z,99747.27
2018-11-20T15:32:26.172Z,99748.27
2018-11-20T15:35:31.427Z,99738.95
2018-11-20T15:38:22.936Z,99738.11
2018-11-20T15:41:17.374Z,99737.30
2018-11-20T15:44:04.961Z,99745.16
2018-11-20T15:46:54.608Z,99736.50
2018-11-20T15:49:43.433Z,99735.70
2018-11-20T15:52:34.497Z,99739.95
2018-11-20T15:55:23.211Z,99731.63
2018-11-20T15:58:10.670Z,99723.61
2018-11-20T16:01:22.963Z,99724.11
2018-11-20T16:04:07.955Z,99725.92
2018-11-20T16:07:01.645Z,99736.39
2018-11-20T16:09:42.847Z,99724.61
2018-11-20T16:12:30.229Z,99728.67
2018-11-20T16:15:33.200Z,99728.86
2018-11-20T16:18:21.920Z,99726.89
2018-11-20T16:21:09.664Z,99723.97
2018-11-20T16:23:57.239Z,99724.78
2018-11-20T16:26:40.142Z,99724.78
2018-11-20T16:29:34.799Z,99726.11
2018-11-20T16:32:22.137Z,99729.23
2018-11-20T16:35:10.889Z,99724.80
2018-11-20T16:38:01.003Z,99729.56
2018-11-20T16:40:55.918Z,99726.76
2018-11-20T16:43:47.889Z,99732.98
2018-11-20T16:46:39.453Z,99740.17
2018-11-20T16:49:40.588Z,99729.90
2018-11-20T16:52:32.397Z,99730.05
2018-11-20T16:55:22.620Z,99733.98
2018-11-20T16:58:10.323Z,99736.28
2018-11-20T17:00:54.560Z,99731.06
2018-11-20T17:03:34.790Z,99723.03
2018-11-20T17:06:29.615Z,99733.02
2018-11-20T17:09:20.336Z,99728.92
2018-11-20T17:12:12.051Z,99739.08
2018-11-20T17:15:01.165Z,99739.73
2018-11-20T17:17:56.757Z,99742.84
2018-11-20T17:20:38.546Z,99739.73
2018-11-20T17:23:45.380Z,99747.28
2018-11-20T17:26:32.845Z,99746.14
2018-11-20T17:29:25.373Z,99746.30
2018-11-20T17:32:08.728Z,99753.84
2018-11-20T17:35:06.758Z,99747.28
2018-11-20T17:38:04.986Z,99755.13
2018-11-20T17:40:52.414Z,99753.02
2018-11-20T17:43:44.137Z,99752.84
2018-11-20T17:46:42.075Z,99753.02
2018-11-20T17:49:40.028Z,99757.91
2018-11-20T17:52:29.286Z,99760.21
2018-11-20T17:55:11.622Z,99766.27
2018-11-20T17:57:59.375Z,99760.86
2018-11-20T18:00:47.093Z,99761.84
2018-11-20T18:03:36.021Z,99770.52
2018-11-20T18:06:23.566Z,99766.59
2018-11-20T18:09:11.130Z,99771.33
2018-11-20T18:11:52.113Z,99773.95
2018-11-20T18:14:49.754Z,99779.37
2018-11-20T18:17:38.569Z,99783.62
2018-11-20T18:20:27.132Z,99778.86
2018-11-20T18:23:19.391Z,99778.86
2018-11-20T18:26:15.207Z,99772.83
2018-11-20T18:29:02.724Z,99781.68
2018-11-20T18:31:50.929Z,99775.28
2018-11-20T18:34:44.079Z,99781.17
2018-11-20T18:37:44.581Z,99776.44
2018-11-20T18:40:33.531Z,99786.91
2018-11-20T18:43:22.336Z,99788.55
2018-11-20T18:46:15.726Z,99783.46
2018-11-20T18:49:07.739Z,99780.70
2018-11-20T18:52:08.809Z,99775.78
2018-11-20T18:55:00.763Z,99772.66
2018-11-20T18:58:05.069Z,99777.40
2018-11-20T19:00:54.317Z,99768.73
2018-11-20T19:03:39.863Z,99762.51
2018-11-20T19:06:29.209Z,99768.91
2018-11-20T19:09:21.205Z,99768.41
2018-11-20T19:12:13.162Z,99769.55
2018-11-20T19:14:57.578Z,99778.58
2018-11-20T19:17:52.224Z,99781.50
2018-11-20T19:20:33.207Z,99779.37
2018-11-20T19:23:21.230Z,99778.08
2018-11-20T19:26:28.436Z,99772.17
2018-11-20T19:29:21.967Z,99772.84
2018-11-20T19:32:19.820Z,99767.11
2018-11-20T19:35:26.891Z,99770.05
2018-11-20T19:38:15.122Z,99774.30
2018-11-20T19:41:03.112Z,99782.34
2018-11-20T19:43:50.677Z,99799.68
2018-11-20T19:46:40.346Z,99803.13
2018-11-20T19:49:28.513Z,99812.62
2018-11-20T19:52:09.742Z,99817.22
2018-11-20T19:54:53.249Z,99814.11
2018-11-20T19:57:41.453Z,99820.16
2018-11-20T20:00:39.998Z,99825.08
2018-11-20T20:03:25.893Z,99826.53
2018-11-20T20:06:26.959Z,99831.44
2018-11-20T20:09:15.952Z,99828.34
2018-11-20T20:12:07.424Z,99824.25
2018-11-20T20:14:59.189Z,99830.80
2018-11-20T20:17:46.793Z,99820.81
2018-11-20T20:20:56.058Z,99831.27
2018-11-20T20:23:41.194Z,99825.55
2018-11-20T20:26:23.712Z,99829.49
2018-11-20T20:29:24.520Z,99834.88
2018-11-20T20:32:16.935Z,99830.14
2018-11-20T20:34:59.986Z,99845.36
2018-11-20T20:37:51.681Z,99847.16
2018-11-20T20:40:39.142Z,99850.43
2018-11-20T20:43:34.961Z,99850.78
2018-11-20T20:46:22.335Z,99856.98
2018-11-20T20:49:09.907Z,99850.30
2018-11-20T20:51:58.835Z,99854.22
2018-11-20T20:54:47.814Z,99848.97
2018-11-20T20:57:42.812Z,99850.44
2018-11-20T21:00:32.159Z,99854.20
2018-11-20T21:03:27.365Z,99849.63
2018-11-20T21:06:18.593Z,99846.85
2018-11-20T21:09:08.192Z,99853.71
2018-11-20T21:11:55.734Z,99850.59
2018-11-20T21:15:02.674Z,99863.53
2018-11-20T21:17:50.549Z,99860.45
2018-11-20T21:20:39.212Z,99862.08
2018-11-20T21:23:29.682Z,99861.57
2018-11-20T21:26:24.405Z,99855.52
2018-11-20T21:29:15.877Z,99860.09
2018-11-20T21:32:07.889Z,99860.41
2018-11-20T21:34:55.394Z,99851.73
2018-11-20T21:37:47.295Z,99842.25
2018-11-20T21:40:35.005Z,99829.94
2018-11-20T21:43:15.601Z,99826.81
2018-11-20T21:46:02.843Z,99832.72
2018-11-20T21:48:54.291Z,99850.53
2018-11-20T21:51:55.663Z,99865.27
2018-11-20T21:55:02.979Z,99868.54
2018-11-20T21:57:55.990Z,99879.50
2018-11-20T22:00:50.193Z,99901.59
2018-11-20T22:03:50.256Z,99906.03
2018-11-20T22:06:48.946Z,99904.73
2018-11-20T22:09:37.723Z,99904.21
2018-11-20T22:12:38.558Z,99906.69
2018-11-20T22:15:27.499Z,99900.97
2018-11-20T22:18:25.689Z,99903.56
2018-11-20T22:21:10.691Z,99916.48
2018-11-20T22:24:08.537Z,99918.83
2018-11-20T22:26:56.278Z,99913.38
2018-11-20T22:29:40.020Z,99907.34
2018-11-20T22:32:27.577Z,99905.03
2018-11-20T22:35:22.278Z,99912.39
2018-11-20T22:38:26.395Z,99913.91
2018-11-20T22:41:06.486Z,99918.29
2018-11-20T22:44:13.595Z,99916.30
2018-11-20T22:47:01.758Z,99908.83
2018-11-20T22:49:53.668Z,99927.75
2018-11-20T22:52:35.447Z,99922.52
2018-11-20T22:55:39.821Z,99916.80
2018-11-20T22:58:20.208Z,99920.86
2018-11-20T23:01:27.708Z,99919.36
2018-11-20T23:04:14.271Z,99925.39
2018-11-20T23:07:15.538Z,99923.92
2018-11-20T23:09:46.209Z,99939.63
2018-11-20T23:12:17.869Z,99940.25
2018-11-20T23:14:48.115Z,99936.69
2018-11-20T23:17:17.795Z,99942.08
2018-11-20T23:19:47.631Z,99942.41
2018-11-20T23:22:17.488Z,99949.77
2018-11-20T23:24:47.348Z,99951.41
2018-11-20T23:27:17.618Z,99958.60
2018-11-20T23:29:47.438Z,99965.83
2018-11-20T23:32:17.280Z,99976.33
2018-11-20T23:34:47.232Z,99979.47
2018-11-20T23:37:17.510Z,99977.72
2018-11-20T23:39:47.326Z,99963.97
2018-11-20T23:42:20.583Z,99964.30
2018-11-20T23:44:47.461Z,99966.94
2018-11-20T23:47:17.290Z,99985.13
2018-11-20T23:49:46.949Z,99988.92
2018-11-20T23:52:16.864Z,99997.78
2018-11-20T23:54:46.949Z,99995.98
2018-11-20T23:57:17.350Z,100005.66
2018-11-20T23:59:47.153Z,100002.87
